createdAt,value
2018-10-05T00:02:01.276Z,27.07
2018-10-05T00:04:29.814Z,31.77
2018-10-05T00:06:58.392Z,30.97
2018-10-05T00:09:26.942Z,30.23
2018-10-05T00:11:55.515Z,31.47
2018-10-05T00:14:24.080Z,24.70
2018-10-05T00:16:52.651Z,29.60
2018-10-05T00:19:21.192Z,28.53
2018-10-05T00:21:49.763Z,22.27
2018-10-05T00:24:18.312Z,21.60
2018-10-05T00:26:46.921Z,19.53
2018-10-05T00:29:15.489Z,21.23
2018-10-05T00:31:44.072Z,24.87
2018-10-05T00:34:12.617Z,20.53
2018-10-05T00:36:41.195Z,33.23
2018-10-05T00:39:10.832Z,23.57
2018-10-05T00:41:39.480Z,22.53
2018-10-05T00:44:08.047Z,20.17
2018-10-05T00:46:36.604Z,20.93
2018-10-05T00:49:05.572Z,19.93
2018-10-05T00:51:34.164Z,26.07
2018-10-05T00:54:02.756Z,21.83
2018-10-05T00:56:31.924Z,22.33
2018-10-05T00:59:00.503Z,19.47
2018-10-05T01:01:29.048Z,22.13
2018-10-05T01:03:57.626Z,19.77
2018-10-05T01:06:26.183Z,20.13
2018-10-05T01:08:54.770Z,20.93
2018-10-05T01:11:23.318Z,21.93
2018-10-05T01:13:51.917Z,18.50
2018-10-05T01:16:20.501Z,22.27
2018-10-05T01:18:49.194Z,22.43
2018-10-05T01:21:17.844Z,17.87
2018-10-05T01:23:46.401Z,20.67
2018-10-05T01:26:14.944Z,19.40
2018-10-05T01:28:43.709Z,18.47
2018-10-05T01:31:12.341Z,21.50
2018-10-05T01:33:40.914Z,18.47
2018-10-05T01:36:09.478Z,22.57
2018-10-05T01:38:38.065Z,17.67
2018-10-05T01:41:06.620Z,20.13
2018-10-05T01:43:35.189Z,22.23
2018-10-05T01:46:03.721Z,21.27
2018-10-05T01:48:32.294Z,20.53
2018-10-05T01:51:00.898Z,18.97
2018-10-05T01:53:29.479Z,19.50
2018-10-05T01:55:58.027Z,17.60
2018-10-05T01:58:26.634Z,16.70
2018-10-05T02:00:55.177Z,16.97
2018-10-05T02:03:23.744Z,19.63
2018-10-05T02:05:52.294Z,17.43
2018-10-05T02:08:20.857Z,16.07
2018-10-05T02:10:49.451Z,17.07
2018-10-05T02:13:18.024Z,14.80
2018-10-05T02:15:46.579Z,14.73
2018-10-05T02:18:15.138Z,16.60
2018-10-05T02:20:43.692Z,15.33
2018-10-05T02:23:12.266Z,16.27
2018-10-05T02:25:40.788Z,15.00
2018-10-05T02:28:09.353Z,17.03
2018-10-05T02:30:37.911Z,15.97
2018-10-05T02:33:07.002Z,19.50
2018-10-05T02:35:35.963Z,14.50
2018-10-05T02:38:04.536Z,16.33
2018-10-05T02:40:33.088Z,14.93
2018-10-05T02:43:01.701Z,12.70
2018-10-05T02:45:30.523Z,15.23
2018-10-05T02:47:59.771Z,13.07
2018-10-05T02:50:28.347Z,12.87
2018-10-05T02:52:56.892Z,15.70
2018-10-05T02:55:25.424Z,15.03
2018-10-05T02:57:54.049Z,16.63
2018-10-05T03:00:34.471Z,15.43
2018-10-05T03:03:03.047Z,16.57
2018-10-05T03:05:31.591Z,20.07
2018-10-05T03:08:00.158Z,18.67
2018-10-05T03:10:28.699Z,17.20
2018-10-05T03:12:57.240Z,18.67
2018-10-05T03:15:25.820Z,16.10
2018-10-05T03:17:54.529Z,17.93
2018-10-05T03:20:23.115Z,17.77
2018-10-05T03:22:52.104Z,17.50
2018-10-05T03:25:20.903Z,20.40
2018-10-05T03:27:49.435Z,18.87
2018-10-05T03:30:18.048Z,16.87
2018-10-05T03:32:46.625Z,18.53
2018-10-05T03:35:15.248Z,18.67
2018-10-05T03:37:43.811Z,19.03
2018-10-05T03:40:12.373Z,19.47
2018-10-05T03:42:40.949Z,17.20
2018-10-05T03:45:09.580Z,17.67
2018-10-05T03:47:38.137Z,19.43
2018-10-05T03:50:06.768Z,19.23
2018-10-05T03:52:35.316Z,15.47
2018-10-05T03:55:03.914Z,17.77
2018-10-05T03:57:32.444Z,18.67
2018-10-05T04:00:01.266Z,20.17
2018-10-05T04:02:29.942Z,18.40
2018-10-05T04:04:58.506Z,23.40
2018-10-05T04:07:27.056Z,20.63
2018-10-05T04:09:55.623Z,23.00
2018-10-05T04:12:24.228Z,20.20
2018-10-05T04:14:52.812Z,27.53
2018-10-05T04:17:21.369Z,28.17
2018-10-05T04:19:49.932Z,25.53
2018-10-05T04:22:24.372Z,21.83
2018-10-05T04:24:52.940Z,24.63
2018-10-05T04:27:21.632Z,25.23
2018-10-05T04:29:50.230Z,22.63
2018-10-05T04:32:18.891Z,28.00
2018-10-05T04:34:47.713Z,28.43
2018-10-05T04:37:16.754Z,23.07
2018-10-05T04:39:45.337Z,28.80
2018-10-05T04:42:13.879Z,31.93
2018-10-05T04:44:42.437Z,21.37
2018-10-05T04:47:10.980Z,19.47
2018-10-05T04:49:39.605Z,23.80
2018-10-05T04:52:08.149Z,19.37
2018-10-05T04:54:36.728Z,18.10
2018-10-05T04:57:05.279Z,15.53
2018-10-05T04:59:33.925Z,16.67
2018-10-05T05:02:02.660Z,17.63
2018-10-05T05:04:31.221Z,17.00
2018-10-05T05:06:59.777Z,16.50
2018-10-05T05:09:28.348Z,16.03
2018-10-05T05:11:56.918Z,18.47
2018-10-05T05:14:25.520Z,19.00
2018-10-05T05:16:54.079Z,20.47
2018-10-05T05:19:22.636Z,17.90
2018-10-05T05:21:51.186Z,21.73
2018-10-05T05:24:19.750Z,20.07
2018-10-05T05:26:48.403Z,23.10
2018-10-05T05:29:16.990Z,22.27
2018-10-05T05:31:45.531Z,21.37
2018-10-05T05:34:14.126Z,19.23
2018-10-05T05:36:42.905Z,21.17
2018-10-05T05:39:11.460Z,20.00
2018-10-05T05:41:40.055Z,19.30
2018-10-05T05:44:08.660Z,17.77
2018-10-05T05:46:37.303Z,16.40
2018-10-05T05:49:06.020Z,19.57
2018-10-05T05:51:34.627Z,15.10
2018-10-05T05:54:03.271Z,17.70
2018-10-05T05:56:31.848Z,18.63
2018-10-05T05:59:00.398Z,17.20
2018-10-05T06:01:28.976Z,17.30
2018-10-05T06:03:57.571Z,16.27
2018-10-05T06:06:26.165Z,16.67
2018-10-05T06:08:55.411Z,19.73
2018-10-05T06:11:24.000Z,17.50
2018-10-05T06:13:52.540Z,17.80
2018-10-05T06:16:21.196Z,17.77
2018-10-05T06:18:49.709Z,20.03
2018-10-05T06:21:18.293Z,17.90
2018-10-05T06:23:46.893Z,16.57
2018-10-05T06:26:15.508Z,15.67
2018-10-05T06:28:44.051Z,19.50
2018-10-05T06:31:12.676Z,19.50
2018-10-05T06:33:41.246Z,17.93
2018-10-05T06:36:09.935Z,18.97
2018-10-05T06:38:38.488Z,18.23
2018-10-05T06:41:07.215Z,17.50
2018-10-05T06:43:35.982Z,19.27
2018-10-05T06:46:04.630Z,18.63
2018-10-05T06:48:33.186Z,22.30
2018-10-05T06:51:01.766Z,20.83
2018-10-05T06:53:30.477Z,21.70
2018-10-05T06:55:59.155Z,21.57
2018-10-05T06:58:27.718Z,25.27
2018-10-05T07:00:56.287Z,23.23
2018-10-05T07:03:25.683Z,25.00
2018-10-05T07:05:54.908Z,27.57
2018-10-05T07:08:24.476Z,24.67
2018-10-05T07:10:53.079Z,23.93
2018-10-05T07:13:22.301Z,23.87
2018-10-05T07:15:51.007Z,23.33
2018-10-05T07:18:19.645Z,22.37
2018-10-05T07:20:49.672Z,20.40
2018-10-05T07:23:18.642Z,22.23
2018-10-05T07:25:48.221Z,20.37
2018-10-05T07:28:16.886Z,21.53
2018-10-05T07:30:45.353Z,20.70
2018-10-05T07:33:13.918Z,21.47
2018-10-05T07:35:42.791Z,21.53
2018-10-05T07:38:11.411Z,20.60
2018-10-05T07:40:39.974Z,20.83
2018-10-05T07:43:08.645Z,17.80
2018-10-05T07:45:37.135Z,19.43
2018-10-05T07:48:05.900Z,21.57
2018-10-05T07:50:34.487Z,17.77
2018-10-05T07:53:03.074Z,22.73
2018-10-05T07:55:31.640Z,19.30
2018-10-05T07:58:00.249Z,19.30
2018-10-05T08:00:28.754Z,17.27
2018-10-05T08:02:57.327Z,18.67
2018-10-05T08:05:25.871Z,18.20
2018-10-05T08:07:54.583Z,23.23
2018-10-05T08:10:23.252Z,23.17
2018-10-05T08:12:51.826Z,16.93
2018-10-05T08:15:20.613Z,19.90
2018-10-05T08:17:49.453Z,19.80
2018-10-05T08:20:18.118Z,18.43
2018-10-05T08:22:46.693Z,18.87
2018-10-05T08:25:15.390Z,22.57
2018-10-05T08:27:44.028Z,17.30
2018-10-05T08:30:12.606Z,17.67
2018-10-05T08:32:41.381Z,17.37
2018-10-05T08:35:09.923Z,18.13
2018-10-05T08:37:38.887Z,16.07
2018-10-05T08:40:08.770Z,16.93
2018-10-05T08:42:37.300Z,15.63
2018-10-05T08:45:05.908Z,15.73
2018-10-05T08:47:34.561Z,14.50
2018-10-05T08:50:03.132Z,17.50
2018-10-05T08:52:32.075Z,15.27
2018-10-05T08:55:00.596Z,14.80
2018-10-05T08:57:29.559Z,14.17
2018-10-05T08:59:58.395Z,15.67
2018-10-05T09:02:26.980Z,13.30
2018-10-05T09:04:55.539Z,13.93
2018-10-05T09:07:24.694Z,15.13
2018-10-05T09:09:53.535Z,13.77
2018-10-05T09:12:22.109Z,12.60
2018-10-05T09:14:50.793Z,14.77
2018-10-05T09:17:19.453Z,13.23
2018-10-05T09:19:48.037Z,14.63
2018-10-05T09:22:16.653Z,14.33
2018-10-05T09:24:45.272Z,13.50
2018-10-05T09:27:13.878Z,12.33
2018-10-05T09:29:42.433Z,12.30
2018-10-05T09:32:10.983Z,12.23
2018-10-05T09:34:39.504Z,12.00
2018-10-05T09:37:08.154Z,12.77
2018-10-05T09:39:37.030Z,12.33
2018-10-05T09:42:05.613Z,12.60
2018-10-05T09:44:34.348Z,13.60
2018-10-05T09:47:03.152Z,16.37
2018-10-05T09:49:31.717Z,13.20
2018-10-05T09:52:00.486Z,13.27
2018-10-05T09:54:29.028Z,14.80
2018-10-05T09:56:57.710Z,14.60
2018-10-05T09:59:26.313Z,13.80
2018-10-05T10:02:00.281Z,13.50
2018-10-05T10:04:28.865Z,12.47
2018-10-05T10:06:57.410Z,13.67
2018-10-05T10:09:25.963Z,14.07
2018-10-05T10:11:54.512Z,13.73
2018-10-05T10:14:23.122Z,14.97
2018-10-05T10:16:51.651Z,12.33
2018-10-05T10:19:20.227Z,11.73
2018-10-05T10:21:48.860Z,13.90
2018-10-05T10:24:17.357Z,17.70
2018-10-05T10:26:45.906Z,13.00
2018-10-05T10:29:15.289Z,16.15
2018-10-05T10:31:43.637Z,12.43
2018-10-05T10:34:12.196Z,11.97
2018-10-05T10:36:40.749Z,14.13
2018-10-05T10:39:09.315Z,13.73
2018-10-05T10:41:37.848Z,15.30
2018-10-05T10:44:06.432Z,12.67
2018-10-05T10:46:35.202Z,12.93
2018-10-05T10:49:03.764Z,13.37
2018-10-05T10:51:32.305Z,13.33
2018-10-05T10:54:00.942Z,12.57
2018-10-05T10:56:29.495Z,14.50
2018-10-05T10:58:58.040Z,12.47
2018-10-05T11:01:26.572Z,17.50
2018-10-05T11:03:55.142Z,12.80
2018-10-05T11:06:23.707Z,10.17
2018-10-05T11:08:52.262Z,9.47
2018-10-05T11:11:20.807Z,9.73
2018-10-05T11:13:49.360Z,8.50
2018-10-05T11:16:18.016Z,8.68
2018-10-05T11:18:46.586Z,8.88
2018-10-05T11:21:15.150Z,10.53
2018-10-05T11:23:43.728Z,8.78
2018-10-05T11:26:12.261Z,11.18
2018-10-05T11:28:40.792Z,9.68
2018-10-05T11:31:09.339Z,10.48
2018-10-05T11:33:37.889Z,11.00
2018-10-05T11:36:06.452Z,9.80
2018-10-05T11:38:35.431Z,10.25
2018-10-05T11:41:04.847Z,10.25
2018-10-05T11:43:33.469Z,8.90
2018-10-05T11:46:02.074Z,8.85
2018-10-05T11:48:30.708Z,9.20
2018-10-05T11:50:59.275Z,9.78
2018-10-05T11:53:27.950Z,6.97
2018-10-05T11:55:56.516Z,5.60
2018-10-05T11:58:25.047Z,6.70
2018-10-05T12:00:53.635Z,5.17
2018-10-05T12:03:22.164Z,6.85
2018-10-05T12:05:50.736Z,6.45
2018-10-05T12:08:19.260Z,15.75
2018-10-05T12:10:47.823Z,12.60
2018-10-05T12:13:16.382Z,6.85
2018-10-05T12:15:44.931Z,5.20
2018-10-05T12:18:13.460Z,6.20
2018-10-05T12:20:42.017Z,6.22
2018-10-05T12:23:10.557Z,6.92
2018-10-05T12:25:39.129Z,5.35
2018-10-05T12:28:07.714Z,5.17
2018-10-05T12:30:36.284Z,4.78
2018-10-05T12:33:04.825Z,4.28
2018-10-05T12:35:33.403Z,5.23
2018-10-05T12:38:03.204Z,6.60
2018-10-05T12:40:31.765Z,4.97
2018-10-05T12:43:00.290Z,6.85
2018-10-05T12:45:28.886Z,4.83
2018-10-05T12:47:57.440Z,5.25
2018-10-05T12:50:26.159Z,4.10
2018-10-05T12:52:54.707Z,3.75
2018-10-05T12:55:23.293Z,5.83
2018-10-05T12:57:51.871Z,5.37
2018-10-05T13:00:20.439Z,3.85
2018-10-05T13:02:49.010Z,3.77
2018-10-05T13:05:17.567Z,3.83
2018-10-05T13:07:46.122Z,4.30
2018-10-05T13:10:14.710Z,3.58
2018-10-05T13:12:43.260Z,4.17
2018-10-05T13:15:11.890Z,4.25
2018-10-05T13:17:40.612Z,4.95
2018-10-05T13:20:09.187Z,5.47
2018-10-05T13:22:37.728Z,4.00
2018-10-05T13:25:06.327Z,5.08
2018-10-05T13:27:34.880Z,5.50
2018-10-05T13:30:03.479Z,4.67
2018-10-05T13:32:32.038Z,4.33
2018-10-05T13:35:00.692Z,3.85
2018-10-05T13:37:29.355Z,3.92
2018-10-05T13:39:58.178Z,4.65
2018-10-05T13:42:26.743Z,5.22
2018-10-05T13:44:55.355Z,5.05
2018-10-05T13:47:23.915Z,3.37
2018-10-05T13:49:52.502Z,2.80
2018-10-05T13:52:21.076Z,4.55
2018-10-05T13:54:49.636Z,3.00
2018-10-05T13:57:18.190Z,4.47
2018-10-05T13:59:46.841Z,5.53
2018-10-05T14:02:15.476Z,5.00
2018-10-05T14:04:44.025Z,2.80
2018-10-05T14:07:12.815Z,2.62
2018-10-05T14:09:41.238Z,2.50
2018-10-05T14:12:09.813Z,4.17
2018-10-05T14:14:38.340Z,2.60
2018-10-05T14:17:07.188Z,4.10
2018-10-05T14:19:35.770Z,2.58
2018-10-05T14:22:04.348Z,6.25
2018-10-05T14:24:32.939Z,6.12
2018-10-05T14:27:01.507Z,3.83
2018-10-05T14:29:30.048Z,3.70
2018-10-05T14:31:58.639Z,4.25
2018-10-05T14:34:27.207Z,2.55
2018-10-05T14:36:55.794Z,5.95
2018-10-05T14:39:24.331Z,5.78
2018-10-05T14:41:52.950Z,4.17
2018-10-05T14:44:21.494Z,3.87
2018-10-05T14:46:50.297Z,4.75
2018-10-05T14:49:18.936Z,3.12
2018-10-05T14:51:47.480Z,9.63
2018-10-05T14:54:16.051Z,9.83
2018-10-05T14:56:44.611Z,3.70
2018-10-05T14:59:13.163Z,2.85
2018-10-05T15:01:41.769Z,3.87
2018-10-05T15:04:10.327Z,2.83
2018-10-05T15:06:38.893Z,2.75
2018-10-05T15:09:07.439Z,4.72
2018-10-05T15:11:36.040Z,3.85
2018-10-05T15:14:04.734Z,3.20
2018-10-05T15:16:33.331Z,2.90
2018-10-05T15:19:01.879Z,9.20
2018-10-05T15:21:30.524Z,5.97
2018-10-05T15:23:59.027Z,4.40
2018-10-05T15:26:27.622Z,6.63
2018-10-05T15:28:56.157Z,4.05
2018-10-05T15:31:24.720Z,5.53
2018-10-05T15:33:53.261Z,5.90
2018-10-05T15:36:21.840Z,3.08
2018-10-05T15:38:50.393Z,3.70
2018-10-05T15:41:19.001Z,4.28
2018-10-05T15:43:47.545Z,5.90
2018-10-05T15:47:20.596Z,4.40
2018-10-05T15:49:49.205Z,4.30
2018-10-05T15:52:17.788Z,4.83
2018-10-05T15:54:46.309Z,3.90
2018-10-05T15:57:14.879Z,5.53
2018-10-05T15:59:43.580Z,4.45
2018-10-05T16:02:12.163Z,8.03
2018-10-05T16:04:40.724Z,5.42
2018-10-05T16:07:09.289Z,8.58
2018-10-05T16:09:37.833Z,4.60
2018-10-05T16:12:06.621Z,5.72
2018-10-05T16:14:35.386Z,8.03
2018-10-05T16:17:04.003Z,5.22
2018-10-05T16:19:32.548Z,4.60
2018-10-05T16:22:01.124Z,7.55
2018-10-05T16:24:36.437Z,6.42
2018-10-05T16:27:05.271Z,7.90
2018-10-05T16:29:34.223Z,5.93
2018-10-05T16:32:02.850Z,8.60
2018-10-05T16:34:31.489Z,9.50
2018-10-05T16:37:00.093Z,11.57
2018-10-05T16:39:29.005Z,5.90
2018-10-05T16:41:57.560Z,7.97
2018-10-05T16:44:26.142Z,7.90
2018-10-05T16:46:54.738Z,14.33
2018-10-05T16:49:23.300Z,7.70
2018-10-05T16:51:51.866Z,6.47
2018-10-05T16:54:20.439Z,9.13
2018-10-05T16:56:49.091Z,7.53
2018-10-05T16:59:17.628Z,10.60
2018-10-05T17:01:46.498Z,10.13
2018-10-05T17:04:15.225Z,9.83
2018-10-05T17:06:43.774Z,8.03
2018-10-05T17:09:13.303Z,9.03
2018-10-05T17:11:43.300Z,8.27
2018-10-05T17:14:11.987Z,5.23
2018-10-05T17:16:40.768Z,5.67
2018-10-05T17:19:09.368Z,6.50
2018-10-05T17:21:37.938Z,7.90
2018-10-05T17:24:06.672Z,9.97
2018-10-05T17:26:35.291Z,5.63
2018-10-05T17:29:03.843Z,10.83
2018-10-05T17:31:32.387Z,11.70
2018-10-05T17:34:01.149Z,12.80
2018-10-05T17:36:29.794Z,8.30
2018-10-05T17:38:58.399Z,7.37
2018-10-05T17:41:26.958Z,8.83
2018-10-05T17:43:55.679Z,11.07
2018-10-05T17:46:24.258Z,8.27
2018-10-05T17:48:52.837Z,8.00
2018-10-05T17:51:21.398Z,9.80
2018-10-05T17:53:49.964Z,11.63
2018-10-05T17:56:18.513Z,13.67
2018-10-05T17:58:47.107Z,15.53
2018-10-05T18:01:15.757Z,14.43
2018-10-05T18:03:44.341Z,11.87
2018-10-05T18:06:12.884Z,20.97
2018-10-05T18:08:41.481Z,15.87
2018-10-05T18:11:10.031Z,16.07
2018-10-05T18:13:38.605Z,14.20
2018-10-05T18:16:07.209Z,13.97
2018-10-05T18:18:35.788Z,9.80
2018-10-05T18:21:04.378Z,11.20
2018-10-05T18:23:33.793Z,11.77
2018-10-05T18:26:02.380Z,10.47
2018-10-05T18:28:30.986Z,13.87
2018-10-05T18:30:59.550Z,12.70
2018-10-05T18:33:28.185Z,15.80
2018-10-05T18:35:56.733Z,16.33
2018-10-05T18:40:50.622Z,10.17
2018-10-05T18:43:19.331Z,13.57
2018-10-05T18:45:47.911Z,10.97
2018-10-05T18:48:16.532Z,11.00
2018-10-05T18:50:45.100Z,12.80
2018-10-05T18:53:13.745Z,11.13
2018-10-05T18:55:42.278Z,9.57
2018-10-05T18:58:10.883Z,11.63
2018-10-05T19:00:39.510Z,13.20
2018-10-05T19:03:08.104Z,16.80
2018-10-05T19:05:36.700Z,20.97
2018-10-05T19:08:05.301Z,15.00
2018-10-05T19:10:33.899Z,14.67
2018-10-05T19:13:02.485Z,12.90
2018-10-05T19:15:31.092Z,12.97
2018-10-05T19:17:59.675Z,17.47
2018-10-05T19:20:28.268Z,15.47
2018-10-05T19:22:57.124Z,16.03
2018-10-05T19:25:25.709Z,16.53
2018-10-05T19:27:54.315Z,14.17
2018-10-05T19:30:22.892Z,14.23
2018-10-05T19:32:51.438Z,15.67
2018-10-05T19:35:20.027Z,11.57
2018-10-05T19:37:48.638Z,11.83
2018-10-05T19:40:17.205Z,10.80
2018-10-05T19:42:45.743Z,11.23
2018-10-05T19:45:14.316Z,11.13
2018-10-05T19:47:42.898Z,10.10
2018-10-05T19:50:11.493Z,9.20
2018-10-05T19:52:40.739Z,11.30
2018-10-05T19:55:09.404Z,9.70
2018-10-05T19:57:37.992Z,10.10
2018-10-05T20:00:06.596Z,9.73
2018-10-05T20:02:35.193Z,10.63
2018-10-05T20:05:04.063Z,11.43
2018-10-05T20:07:32.667Z,11.40
2018-10-05T20:10:01.273Z,13.83
2018-10-05T20:12:29.933Z,12.83
2018-10-05T20:14:58.696Z,10.80
2018-10-05T20:17:27.320Z,16.30
2018-10-05T20:19:55.973Z,12.80
2018-10-05T20:22:24.567Z,13.90
2018-10-05T20:24:53.329Z,12.17
2018-10-05T20:27:21.915Z,13.40
2018-10-05T20:29:50.538Z,14.60
2018-10-05T20:32:19.183Z,12.73
2018-10-05T20:34:47.782Z,12.97
2018-10-05T20:37:16.955Z,12.47
2018-10-05T20:39:45.554Z,13.40
2018-10-05T20:42:14.162Z,12.33
2018-10-05T20:44:42.803Z,15.10
2018-10-05T20:47:11.483Z,13.53
2018-10-05T20:49:40.100Z,20.33
2018-10-05T20:52:08.674Z,14.93
2018-10-05T20:54:37.285Z,15.97
2018-10-05T20:57:05.962Z,18.50
2018-10-05T20:59:34.587Z,17.17
2018-10-05T21:02:03.166Z,14.83
2018-10-05T21:04:31.866Z,15.17
2018-10-05T21:07:00.514Z,16.60
2018-10-05T21:09:29.216Z,16.50
2018-10-05T21:11:57.935Z,17.37
2018-10-05T21:14:26.731Z,17.33
2018-10-05T21:16:55.334Z,19.77
2018-10-05T21:19:23.989Z,19.07
2018-10-05T21:21:52.617Z,20.77
2018-10-05T21:24:21.287Z,19.23
2018-10-05T21:26:49.893Z,19.20
2018-10-05T21:29:18.623Z,18.73
2018-10-05T21:31:47.268Z,16.40
2018-10-05T21:34:16.066Z,15.70
2018-10-05T21:36:44.691Z,15.03
2018-10-05T21:39:13.317Z,14.93
2018-10-05T21:41:42.030Z,19.03
2018-10-05T21:44:10.678Z,17.10
2018-10-05T21:46:39.512Z,13.53
2018-10-05T21:49:08.272Z,15.83
2018-10-05T21:51:37.028Z,15.33
2018-10-05T21:54:05.550Z,11.80
2018-10-05T21:56:34.159Z,12.97
2018-10-05T21:59:02.781Z,10.27
2018-10-05T22:01:31.400Z,10.80
2018-10-05T22:04:00.031Z,11.77
2018-10-05T22:06:28.738Z,10.87
2018-10-05T22:08:57.346Z,10.47
2018-10-05T22:11:25.927Z,9.90
2018-10-05T22:13:54.492Z,9.60
2018-10-05T22:16:23.324Z,8.20
2018-10-05T22:18:51.906Z,8.70
2018-10-05T22:21:20.503Z,9.73
2018-10-05T22:23:49.164Z,9.87
2018-10-05T22:26:17.814Z,10.23
2018-10-05T22:28:46.400Z,10.13
2018-10-05T22:31:15.007Z,9.77
2018-10-05T22:33:43.609Z,10.30
2018-10-05T22:36:12.244Z,10.67
2018-10-05T22:38:40.844Z,10.70
2018-10-05T22:41:09.473Z,10.67
2018-10-05T22:43:39.736Z,10.13
2018-10-05T22:46:08.810Z,11.10
2018-10-05T22:48:37.379Z,11.13
2018-10-05T22:51:06.274Z,12.70
2018-10-05T22:53:34.884Z,11.87
2018-10-05T22:56:03.532Z,11.70
2018-10-05T22:58:32.146Z,11.87
2018-10-05T23:01:00.834Z,12.27
2018-10-05T23:03:29.463Z,11.80
2018-10-05T23:05:58.216Z,11.43
2018-10-05T23:08:26.808Z,17.17
2018-10-05T23:10:55.540Z,11.90
2018-10-05T23:13:24.144Z,11.30
2018-10-05T23:15:52.753Z,10.83
2018-10-05T23:18:21.445Z,11.40
2018-10-05T23:20:50.108Z,10.87
2018-10-05T23:23:18.785Z,11.00
2018-10-05T23:25:47.410Z,11.43
2018-10-05T23:28:16.020Z,11.40
2018-10-05T23:30:44.824Z,11.50
2018-10-05T23:33:13.430Z,11.97
2018-10-05T23:35:42.046Z,11.60
2018-10-05T23:38:10.859Z,12.27
2018-10-05T23:40:39.566Z,12.33
2018-10-05T23:43:08.147Z,13.53
2018-10-05T23:45:36.730Z,14.47
2018-10-05T23:48:05.420Z,14.77
2018-10-05T23:50:34.039Z,14.87
2018-10-05T23:53:02.780Z,13.90
2018-10-05T23:55:31.413Z,13.90
2018-10-05T23:58:00.045Z,13.10
